createdAt,value
2022-08-31T00:00:43.367Z,4.90
2022-08-31T00:03:30.413Z,5.40
2022-08-31T00:06:02.178Z,5.30
2022-08-31T00:08:31.629Z,5.20
2022-08-31T00:11:01.023Z,5.20
2022-08-31T00:13:30.323Z,5.30
2022-08-31T00:15:58.975Z,4.90
2022-08-31T00:18:27.588Z,5.10
2022-08-31T00:20:56.089Z,5.20
2022-08-31T00:23:26.223Z,5.30
2022-08-31T00:25:54.983Z,4.70
2022-08-31T00:28:23.592Z,5.20
2022-08-31T00:30:52.273Z,4.90
2022-08-31T00:33:20.861Z,5.20
2022-08-31T00:35:49.777Z,5.50
2022-08-31T00:38:18.400Z,5.00
2022-08-31T00:40:48.002Z,6.70
2022-08-31T00:43:45.439Z,5.40
2022-08-31T00:46:18.622Z,5.10
2022-08-31T00:48:57.933Z,5.10
2022-08-31T00:51:29.064Z,5.30
2022-08-31T00:53:58.697Z,5.80
2022-08-31T00:56:28.190Z,5.40
2022-08-31T00:58:57.185Z,5.60
2022-08-31T01:01:28.199Z,5.00
2022-08-31T01:03:58.155Z,5.00
2022-08-31T01:06:27.190Z,5.50
2022-08-31T01:08:59.715Z,5.30
2022-08-31T01:11:29.284Z,5.50
2022-08-31T01:13:58.502Z,5.10
2022-08-31T01:16:33.609Z,5.30
2022-08-31T01:19:06.045Z,5.50
2022-08-31T01:22:15.495Z,5.10
2022-08-31T01:24:47.381Z,5.30
2022-08-31T01:27:20.343Z,4.90
2022-08-31T01:29:48.957Z,5.30
2022-08-31T01:32:17.588Z,5.00
2022-08-31T01:34:46.375Z,5.10
2022-08-31T01:37:15.367Z,5.20
2022-08-31T01:39:44.362Z,5.20
2022-08-31T01:42:13.101Z,5.10
2022-08-31T01:44:41.633Z,5.80
2022-08-31T01:47:10.493Z,5.00
2022-08-31T01:49:39.553Z,5.40
2022-08-31T01:52:08.309Z,5.30
2022-08-31T01:54:37.214Z,5.30
2022-08-31T01:57:07.017Z,5.00
2022-08-31T01:59:54.439Z,4.90
2022-08-31T02:02:43.266Z,5.10
2022-08-31T02:05:14.772Z,5.70
2022-08-31T02:07:47.026Z,5.60
2022-08-31T02:10:15.966Z,6.00
2022-08-31T02:12:44.828Z,6.10
2022-08-31T02:15:13.757Z,6.40
2022-08-31T02:17:42.690Z,6.40
2022-08-31T02:20:15.042Z,6.60
2022-08-31T02:22:44.776Z,6.90
2022-08-31T02:25:13.401Z,6.60
2022-08-31T02:27:42.062Z,7.40
2022-08-31T02:30:15.343Z,7.50
2022-08-31T02:32:44.237Z,7.20
2022-08-31T02:35:13.010Z,7.00
2022-08-31T02:37:41.740Z,7.30
2022-08-31T02:40:12.092Z,8.00
2022-08-31T02:42:52.755Z,7.90
2022-08-31T02:45:25.821Z,7.30
2022-08-31T02:47:57.788Z,7.90
2022-08-31T02:50:44.664Z,9.00
2022-08-31T02:53:15.607Z,8.30
2022-08-31T02:55:45.723Z,8.20
2022-08-31T02:58:14.716Z,7.70
2022-08-31T03:00:48.752Z,7.90
2022-08-31T03:03:18.867Z,8.60
2022-08-31T03:05:47.947Z,8.20
2022-08-31T03:08:18.645Z,8.70
2022-08-31T03:10:49.204Z,8.70
2022-08-31T03:13:19.240Z,8.80
2022-08-31T03:15:48.571Z,8.90
2022-08-31T03:18:18.445Z,8.80
2022-08-31T03:20:47.062Z,8.10
2022-08-31T03:23:16.024Z,8.30
2022-08-31T03:25:45.014Z,8.10
2022-08-31T03:28:15.032Z,7.40
2022-08-31T03:30:47.616Z,8.00
2022-08-31T03:33:17.188Z,8.00
2022-08-31T03:35:46.520Z,8.40
2022-08-31T03:38:17.237Z,8.10
2022-08-31T03:40:47.305Z,8.20
2022-08-31T03:43:16.486Z,8.20
2022-08-31T03:45:45.467Z,8.40
2022-08-31T03:48:13.933Z,8.40
2022-08-31T03:50:45.088Z,8.10
2022-08-31T03:53:22.962Z,9.30
2022-08-31T03:56:02.228Z,8.40
2022-08-31T03:58:33.179Z,8.90
2022-08-31T04:01:02.875Z,9.10
2022-08-31T04:04:04.233Z,9.40
2022-08-31T04:06:53.499Z,8.70
2022-08-31T04:09:40.927Z,9.00
2022-08-31T04:12:42.329Z,8.20
2022-08-31T04:15:16.606Z,9.40
2022-08-31T04:17:48.155Z,9.50
2022-08-31T04:20:47.863Z,9.10
2022-08-31T04:23:16.818Z,9.50
2022-08-31T04:25:52.354Z,8.90
2022-08-31T04:28:21.398Z,9.30
2022-08-31T04:30:50.860Z,9.80
2022-08-31T04:33:20.022Z,8.50
2022-08-31T04:35:49.096Z,8.90
2022-08-31T04:38:18.279Z,8.90
2022-08-31T04:40:47.602Z,9.10
2022-08-31T04:43:16.665Z,9.10
2022-08-31T04:45:46.359Z,8.90
2022-08-31T04:48:15.825Z,9.90
2022-08-31T04:50:44.765Z,9.30
2022-08-31T04:53:13.808Z,9.20
2022-08-31T04:55:44.019Z,9.40
2022-08-31T04:58:14.579Z,10.00
2022-08-31T05:00:44.524Z,9.50
2022-08-31T05:03:42.440Z,9.40
2022-08-31T05:06:19.489Z,9.80
2022-08-31T05:08:54.573Z,8.60
2022-08-31T05:11:25.199Z,9.40
2022-08-31T05:13:56.954Z,9.10
2022-08-31T05:16:25.934Z,8.90
2022-08-31T05:18:55.341Z,9.40
2022-08-31T05:21:34.923Z,9.60
2022-08-31T05:24:20.778Z,9.00
2022-08-31T05:26:53.553Z,9.50
2022-08-31T05:29:25.006Z,9.60
2022-08-31T05:32:01.272Z,10.10
2022-08-31T05:34:30.061Z,9.00
2022-08-31T05:36:58.880Z,9.10
2022-08-31T05:39:32.494Z,8.70
2022-08-31T05:42:01.343Z,8.90
2022-08-31T05:44:30.033Z,8.90
2022-08-31T05:47:03.515Z,9.80
2022-08-31T05:49:34.088Z,8.50
2022-08-31T05:52:05.583Z,8.40
2022-08-31T05:54:37.027Z,8.50
2022-08-31T05:57:07.463Z,8.70
2022-08-31T05:59:36.253Z,7.60
2022-08-31T06:02:05.535Z,7.70
2022-08-31T06:04:35.705Z,7.90
2022-08-31T06:07:04.387Z,8.50
2022-08-31T06:09:47.026Z,8.00
2022-08-31T06:12:20.434Z,8.10
2022-08-31T06:14:53.245Z,8.40
2022-08-31T06:17:22.280Z,8.90
2022-08-31T06:19:51.888Z,8.30
2022-08-31T06:22:21.195Z,8.50
2022-08-31T06:24:51.034Z,8.80
2022-08-31T06:27:21.736Z,8.30
2022-08-31T06:29:51.861Z,8.30
2022-08-31T06:32:21.583Z,7.90
2022-08-31T06:34:56.806Z,7.60
2022-08-31T06:37:57.748Z,8.50
2022-08-31T06:40:46.414Z,8.60
2022-08-31T06:43:33.425Z,9.50
2022-08-31T06:46:12.776Z,7.50
2022-08-31T06:49:04.899Z,7.70
2022-08-31T06:51:38.645Z,7.40
2022-08-31T06:57:17.471Z,7.90
2022-08-31T07:00:08.796Z,6.50
2022-08-31T07:02:57.441Z,7.30
2022-08-31T07:05:27.564Z,7.70
2022-08-31T07:07:56.742Z,7.10
2022-08-31T07:10:25.534Z,7.60
2022-08-31T07:12:54.219Z,6.90
2022-08-31T07:15:23.518Z,7.20
2022-08-31T07:17:52.715Z,7.20
2022-08-31T07:20:22.021Z,7.90
2022-08-31T07:22:51.216Z,7.60
2022-08-31T07:25:40.382Z,8.10
2022-08-31T07:28:11.567Z,7.60
2022-08-31T07:30:42.706Z,7.30
2022-08-31T07:33:15.143Z,7.90
2022-08-31T07:35:49.371Z,8.30
2022-08-31T07:38:45.805Z,7.50
2022-08-31T07:41:34.355Z,7.10
2022-08-31T07:44:03.867Z,7.30
2022-08-31T07:46:33.515Z,7.40
2022-08-31T07:49:09.184Z,7.00
2022-08-31T07:51:53.986Z,7.30
2022-08-31T07:54:41.553Z,7.70
2022-08-31T07:57:26.046Z,7.30
2022-08-31T08:00:09.451Z,7.60
2022-08-31T08:02:53.324Z,8.00
2022-08-31T08:05:28.736Z,7.10
2022-08-31T08:08:23.235Z,7.10
2022-08-31T08:11:05.995Z,6.80
2022-08-31T08:13:36.318Z,7.00
2022-08-31T08:16:11.832Z,7.50
2022-08-31T08:18:49.678Z,6.20
2022-08-31T08:21:22.658Z,6.20
2022-08-31T08:23:52.672Z,6.30
2022-08-31T08:26:54.114Z,6.60
2022-08-31T08:29:42.857Z,6.70
2022-08-31T08:32:17.636Z,6.50
2022-08-31T08:34:46.941Z,7.20
2022-08-31T08:37:16.319Z,7.10
2022-08-31T08:39:46.576Z,6.80
2022-08-31T08:42:23.253Z,7.40
2022-08-31T08:44:52.206Z,6.50
2022-08-31T08:47:37.494Z,6.90
2022-08-31T08:50:09.545Z,6.90
2022-08-31T08:52:44.422Z,6.70
2022-08-31T08:55:17.567Z,6.70
2022-08-31T08:57:52.567Z,7.70
2022-08-31T09:00:28.787Z,7.10
2022-08-31T09:03:23.663Z,7.50
2022-08-31T09:06:45.946Z,7.40
2022-08-31T09:09:22.895Z,7.40
2022-08-31T09:12:25.163Z,6.70
2022-08-31T09:15:28.769Z,6.70
2022-08-31T09:18:07.492Z,6.90
2022-08-31T09:20:36.539Z,6.20
2022-08-31T09:23:08.348Z,6.20
2022-08-31T09:25:52.631Z,5.80
2022-08-31T09:28:43.853Z,6.60
2022-08-31T09:31:34.946Z,5.70
2022-08-31T09:34:08.742Z,6.60
2022-08-31T09:36:41.448Z,5.80
2022-08-31T09:39:33.071Z,6.70
2022-08-31T09:42:20.576Z,6.10
2022-08-31T09:44:51.408Z,6.30
2022-08-31T09:47:52.649Z,6.00
2022-08-31T09:50:36.302Z,6.00
2022-08-31T09:53:42.259Z,5.50
2022-08-31T09:56:17.367Z,6.90
2022-08-31T09:59:03.090Z,6.10
2022-08-31T10:01:45.340Z,5.70
2022-08-31T10:04:28.304Z,6.20
2022-08-31T10:07:06.815Z,6.20
2022-08-31T10:09:47.485Z,5.60
2022-08-31T10:12:42.215Z,5.50
2022-08-31T10:15:26.031Z,5.40
2022-08-31T10:18:12.118Z,5.70
2022-08-31T10:20:51.078Z,5.30
2022-08-31T10:23:36.524Z,6.60
2022-08-31T10:26:13.811Z,5.60
2022-08-31T10:28:54.564Z,6.10
2022-08-31T10:31:51.327Z,5.20
2022-08-31T10:34:53.140Z,6.00
2022-08-31T10:37:32.667Z,5.40
2022-08-31T10:40:10.286Z,5.10
2022-08-31T10:42:45.320Z,5.40
2022-08-31T10:45:18.802Z,5.80
2022-08-31T10:47:51.000Z,5.70
2022-08-31T10:50:45.610Z,5.40
2022-08-31T10:53:34.965Z,5.90
2022-08-31T10:56:36.069Z,5.60
2022-08-31T10:59:17.428Z,5.30
2022-08-31T11:01:57.482Z,5.70
2022-08-31T11:04:33.529Z,5.30
2022-08-31T11:07:36.119Z,5.10
2022-08-31T11:10:20.371Z,5.10
2022-08-31T11:12:57.859Z,5.40
2022-08-31T11:15:50.639Z,5.00
2022-08-31T11:18:52.275Z,5.50
2022-08-31T11:21:54.960Z,5.30
2022-08-31T11:24:37.742Z,5.20
2022-08-31T11:27:12.214Z,5.30
2022-08-31T11:29:58.871Z,5.20
2022-08-31T11:32:35.827Z,5.20
2022-08-31T11:35:10.723Z,5.00
2022-08-31T11:37:53.561Z,5.30
2022-08-31T11:40:58.065Z,6.00
2022-08-31T11:43:33.000Z,5.50
2022-08-31T11:46:27.356Z,5.00
2022-08-31T11:48:56.381Z,5.50
2022-08-31T11:51:38.693Z,5.90
2022-08-31T11:54:24.683Z,5.40
2022-08-31T11:56:57.260Z,5.40
2022-08-31T11:59:32.617Z,5.30
2022-08-31T12:02:21.811Z,5.40
2022-08-31T12:04:52.794Z,5.40
2022-08-31T12:07:37.098Z,5.00
2022-08-31T12:10:27.760Z,6.70
2022-08-31T12:13:07.815Z,7.50
2022-08-31T12:16:12.713Z,5.80
2022-08-31T12:19:03.249Z,5.70
2022-08-31T12:21:59.589Z,5.10
2022-08-31T12:24:49.465Z,5.30
2022-08-31T12:27:44.690Z,5.30
2022-08-31T12:30:21.992Z,5.30
2022-08-31T12:33:11.853Z,4.70
2022-08-31T12:35:41.047Z,5.40
2022-08-31T12:38:18.340Z,4.80
2022-08-31T12:40:58.231Z,5.40
2022-08-31T12:43:36.289Z,4.80
2022-08-31T12:46:05.330Z,5.30
2022-08-31T12:48:57.523Z,4.60
2022-08-31T12:51:47.007Z,4.90
2022-08-31T12:54:31.235Z,5.00
2022-08-31T12:57:03.045Z,4.90
2022-08-31T13:00:00.111Z,5.20
2022-08-31T13:02:33.943Z,4.80
2022-08-31T13:05:17.095Z,4.70
2022-08-31T13:07:45.988Z,6.40
2022-08-31T13:10:25.218Z,5.30
2022-08-31T13:12:57.680Z,4.90
2022-08-31T13:15:42.970Z,6.30
2022-08-31T13:18:38.392Z,5.10
2022-08-31T13:21:08.928Z,4.90
2022-08-31T13:23:48.570Z,5.60
2022-08-31T13:26:25.748Z,5.20
2022-08-31T13:28:58.685Z,4.90
2022-08-31T13:31:40.519Z,5.20
2022-08-31T13:34:09.313Z,5.20
2022-08-31T13:36:51.719Z,4.60
2022-08-31T13:39:30.241Z,5.10
2022-08-31T13:42:12.837Z,5.30
2022-08-31T13:44:44.640Z,4.90
2022-08-31T13:47:22.339Z,4.80
2022-08-31T13:49:59.947Z,4.90
2022-08-31T13:52:31.151Z,5.10
2022-08-31T13:55:04.489Z,5.80
2022-08-31T13:57:36.317Z,5.60
2022-08-31T14:00:36.951Z,5.30
2022-08-31T14:03:32.383Z,5.30
2022-08-31T14:06:26.337Z,6.40
2022-08-31T14:09:17.349Z,5.50
2022-08-31T14:12:01.751Z,5.40
2022-08-31T14:14:40.422Z,5.80
2022-08-31T14:17:18.013Z,5.40
2022-08-31T14:19:47.347Z,5.30
2022-08-31T14:22:30.530Z,5.70
2022-08-31T14:25:01.290Z,6.20
2022-08-31T14:27:30.794Z,6.20
2022-08-31T14:30:00.811Z,5.70
2022-08-31T14:32:31.466Z,5.40
2022-08-31T14:35:01.658Z,5.70
2022-08-31T14:37:32.031Z,5.80
2022-08-31T14:40:07.097Z,5.90
2022-08-31T14:42:39.730Z,5.50
2022-08-31T14:45:11.509Z,5.10
2022-08-31T14:47:44.343Z,5.70
2022-08-31T14:50:18.714Z,5.70
2022-08-31T14:52:58.946Z,5.30
2022-08-31T14:55:32.938Z,6.60
2022-08-31T14:58:08.686Z,5.70
2022-08-31T15:00:44.224Z,5.70
2022-08-31T15:03:15.591Z,5.60
2022-08-31T15:05:44.676Z,6.00
2022-08-31T15:08:13.877Z,5.40
2022-08-31T15:10:42.907Z,8.50
2022-08-31T15:13:12.069Z,6.40
2022-08-31T15:15:43.798Z,5.80
2022-08-31T15:18:15.338Z,5.00
2022-08-31T15:20:44.427Z,5.70
2022-08-31T15:23:13.573Z,5.30
2022-08-31T15:25:44.414Z,4.80
2022-08-31T15:28:14.825Z,5.20
2022-08-31T15:30:43.729Z,5.40
2022-08-31T15:33:12.873Z,5.00
2022-08-31T15:35:43.597Z,5.30
2022-08-31T15:38:12.615Z,5.40
2022-08-31T15:40:42.452Z,4.80
2022-08-31T15:43:16.278Z,4.90
2022-08-31T15:45:45.450Z,5.30
2022-08-31T15:48:33.208Z,5.20
2022-08-31T15:51:02.406Z,5.00
2022-08-31T15:53:32.573Z,4.50
2022-08-31T15:56:08.524Z,5.30
2022-08-31T15:58:40.686Z,4.80
2022-08-31T16:01:16.531Z,5.60
2022-08-31T16:03:57.329Z,4.80
2022-08-31T16:06:35.229Z,4.70
2022-08-31T16:09:05.182Z,4.90
2022-08-31T16:11:40.288Z,5.30
2022-08-31T16:14:14.520Z,5.60
2022-08-31T16:16:46.998Z,5.30
2022-08-31T16:19:33.672Z,5.00
2022-08-31T16:22:06.667Z,4.90
2022-08-31T16:24:37.560Z,4.70
2022-08-31T16:27:15.884Z,4.90
2022-08-31T16:29:47.541Z,4.60
2022-08-31T16:32:16.918Z,4.70
2022-08-31T16:34:46.273Z,4.50
2022-08-31T16:37:15.241Z,4.80
2022-08-31T16:39:47.354Z,5.50
2022-08-31T16:42:17.869Z,4.80
2022-08-31T16:44:48.082Z,4.90
2022-08-31T16:47:19.024Z,4.30
2022-08-31T16:49:48.746Z,4.80
2022-08-31T16:52:24.500Z,4.90
2022-08-31T16:58:51.118Z,5.10
2022-08-31T17:01:24.744Z,4.50
2022-08-31T17:03:56.276Z,4.30
2022-08-31T17:06:31.143Z,4.80
2022-08-31T17:09:04.334Z,4.80
2022-08-31T17:11:38.078Z,5.30
2022-08-31T17:14:09.060Z,5.00
2022-08-31T17:16:39.844Z,4.70
2022-08-31T17:19:11.960Z,5.30
2022-08-31T17:21:50.950Z,5.30
2022-08-31T17:24:24.589Z,5.10
2022-08-31T17:26:59.729Z,5.40
2022-08-31T17:29:34.226Z,5.20
2022-08-31T17:32:17.308Z,5.10
2022-08-31T17:34:51.870Z,4.80
2022-08-31T17:37:27.974Z,4.40
2022-08-31T17:39:56.890Z,4.80
2022-08-31T17:42:27.451Z,4.60
2022-08-31T17:44:58.329Z,4.80
2022-08-31T17:47:27.277Z,5.00
2022-08-31T17:49:56.015Z,4.90
2022-08-31T17:52:24.864Z,5.30
2022-08-31T17:54:53.781Z,5.10
2022-08-31T17:57:26.738Z,4.70
2022-08-31T17:59:55.965Z,5.00
2022-08-31T18:02:32.833Z,4.80
2022-08-31T18:05:03.226Z,4.40
2022-08-31T18:07:41.340Z,4.30
2022-08-31T18:10:10.643Z,4.70
2022-08-31T18:12:42.191Z,4.90
2022-08-31T18:15:14.082Z,5.30
2022-08-31T18:17:43.563Z,5.10
2022-08-31T18:20:12.851Z,4.90
2022-08-31T18:22:41.502Z,5.10
2022-08-31T18:25:10.916Z,5.10
2022-08-31T18:27:39.735Z,5.00
2022-08-31T18:30:10.156Z,4.50
2022-08-31T18:32:38.801Z,4.70
2022-08-31T18:35:17.986Z,4.80
2022-08-31T18:37:47.190Z,4.90
2022-08-31T18:40:34.714Z,4.40
2022-08-31T18:43:22.184Z,4.60
2022-08-31T18:45:51.486Z,5.00
2022-08-31T18:48:26.277Z,5.00
2022-08-31T18:50:59.373Z,4.50
2022-08-31T18:53:30.443Z,4.60
2022-08-31T18:56:08.031Z,4.30
2022-08-31T18:58:38.128Z,4.30
2022-08-31T19:01:11.653Z,4.40
2022-08-31T19:03:42.151Z,4.70
2022-08-31T19:06:24.193Z,4.40
2022-08-31T19:08:53.438Z,4.40
2022-08-31T19:11:23.634Z,4.30
2022-08-31T19:13:56.967Z,4.90
2022-08-31T19:16:29.207Z,5.00
2022-08-31T19:18:59.048Z,5.00
2022-08-31T19:21:30.943Z,4.90
2022-08-31T19:24:01.742Z,4.30
2022-08-31T19:26:39.525Z,4.40
2022-08-31T19:29:11.562Z,4.80
2022-08-31T19:31:44.677Z,4.70
2022-08-31T19:34:20.173Z,5.20
2022-08-31T19:36:53.980Z,5.10
2022-08-31T19:39:28.175Z,4.80
2022-08-31T19:42:00.107Z,5.10
2022-08-31T19:44:29.343Z,5.10
2022-08-31T19:47:25.227Z,5.20
2022-08-31T19:49:54.162Z,4.90
2022-08-31T19:52:24.688Z,5.00
2022-08-31T19:54:53.473Z,4.80
2022-08-31T19:57:22.962Z,4.80
2022-08-31T19:59:51.668Z,5.10
2022-08-31T20:02:22.498Z,4.80
2022-08-31T20:04:51.403Z,4.60
2022-08-31T20:07:26.944Z,4.60
2022-08-31T20:09:58.503Z,4.30
2022-08-31T20:12:27.330Z,4.80
2022-08-31T20:14:55.971Z,4.90
2022-08-31T20:17:24.766Z,4.30
2022-08-31T20:19:55.320Z,4.50
2022-08-31T20:22:26.167Z,4.50
2022-08-31T20:25:01.986Z,4.60
2022-08-31T20:27:38.158Z,4.70
2022-08-31T20:30:08.397Z,4.20
2022-08-31T20:32:37.054Z,4.80
2022-08-31T20:35:07.079Z,4.40
2022-08-31T20:37:35.859Z,4.80
2022-08-31T20:40:04.921Z,4.40
2022-08-31T20:42:33.644Z,4.20
2022-08-31T20:45:05.009Z,4.70
2022-08-31T20:47:54.058Z,4.70
2022-08-31T20:50:22.794Z,4.90
2022-08-31T20:52:51.738Z,4.50
2022-08-31T20:55:20.736Z,4.40
2022-08-31T20:57:51.061Z,4.50
2022-08-31T21:00:20.166Z,4.40
2022-08-31T21:02:50.246Z,4.40
2022-08-31T21:05:38.429Z,4.80
2022-08-31T21:08:08.028Z,4.40
2022-08-31T21:10:39.092Z,4.30
2022-08-31T21:13:11.038Z,5.10
2022-08-31T21:15:42.153Z,4.50
2022-08-31T21:18:12.094Z,4.70
2022-08-31T21:20:41.013Z,5.50
2022-08-31T21:23:10.895Z,4.60
2022-08-31T21:25:45.355Z,4.40
2022-08-31T21:28:18.080Z,4.70
2022-08-31T21:30:50.323Z,4.50
2022-08-31T21:33:19.441Z,4.60
2022-08-31T21:35:48.359Z,4.30
2022-08-31T21:38:18.584Z,4.30
2022-08-31T21:40:49.441Z,4.70
2022-08-31T21:43:19.018Z,4.30
2022-08-31T21:45:55.166Z,4.60
2022-08-31T21:48:26.019Z,4.60
2022-08-31T21:50:55.597Z,4.70
2022-08-31T21:53:26.159Z,4.90
2022-08-31T21:55:55.053Z,4.60
2022-08-31T21:58:24.084Z,5.00
2022-08-31T22:00:52.934Z,4.50
2022-08-31T22:03:22.853Z,4.70
2022-08-31T22:05:51.746Z,4.80
2022-08-31T22:08:20.894Z,4.60
2022-08-31T22:10:49.424Z,4.70
2022-08-31T22:13:18.540Z,4.40
2022-08-31T22:15:48.364Z,4.50
2022-08-31T22:21:07.306Z,4.90
2022-08-31T22:23:35.995Z,4.50
2022-08-31T22:26:04.914Z,4.80
2022-08-31T22:28:35.078Z,4.30
2022-08-31T22:31:04.679Z,4.10
2022-08-31T22:33:33.406Z,4.80
2022-08-31T22:36:02.226Z,5.00
2022-08-31T22:38:31.052Z,4.60
2022-08-31T22:41:10.020Z,4.70
2022-08-31T22:43:40.098Z,4.60
2022-08-31T22:46:13.930Z,4.40
2022-08-31T22:48:42.624Z,4.10
2022-08-31T22:51:13.259Z,4.50
2022-08-31T22:53:45.132Z,4.10
2022-08-31T22:56:19.501Z,4.20
2022-08-31T22:58:49.372Z,4.50
2022-08-31T23:01:23.347Z,4.80
2022-08-31T23:03:54.069Z,4.30
2022-08-31T23:06:23.816Z,4.40
2022-08-31T23:08:54.426Z,4.40
2022-08-31T23:11:24.992Z,4.20
2022-08-31T23:13:57.627Z,4.40
2022-08-31T23:16:29.988Z,4.30
2022-08-31T23:19:05.478Z,4.40
2022-08-31T23:21:35.211Z,4.50
2022-08-31T23:24:05.001Z,4.10
2022-08-31T23:26:33.480Z,4.50
2022-08-31T23:29:05.849Z,4.30
2022-08-31T23:31:35.962Z,4.60
2022-08-31T23:34:09.993Z,5.10
2022-08-31T23:36:41.023Z,4.50
2022-08-31T23:39:10.019Z,4.20
2022-08-31T23:41:39.212Z,4.30
